createdAt,value
2023-04-28T00:02:03.769Z,9.60
2023-04-28T00:04:31.157Z,9.60
2023-04-28T00:06:58.422Z,9.70
2023-04-28T00:09:26.489Z,9.70
2023-04-28T00:11:53.641Z,9.80
2023-04-28T00:14:20.847Z,9.80
2023-04-28T00:16:48.196Z,9.90
2023-04-28T00:19:15.421Z,9.90
2023-04-28T00:21:42.495Z,9.90
2023-04-28T00:24:09.709Z,10.00
2023-04-28T00:26:36.900Z,10.10
2023-04-28T00:29:03.995Z,10.10
2023-04-28T00:31:31.136Z,10.10
2023-04-28T00:33:58.644Z,10.00
2023-04-28T00:36:25.774Z,9.80
2023-04-28T00:38:52.869Z,9.70
2023-04-28T00:41:19.975Z,9.50
2023-04-28T00:43:48.643Z,9.40
2023-04-28T00:46:30.318Z,9.40
2023-04-28T00:48:58.426Z,9.40
2023-04-28T00:51:29.305Z,9.30
2023-04-28T00:54:00.553Z,9.40
2023-04-28T00:56:31.293Z,9.30
2023-04-28T00:58:59.582Z,9.40
2023-04-28T01:01:27.048Z,9.50
2023-04-28T01:03:54.409Z,9.50
2023-04-28T01:06:22.951Z,9.50
2023-04-28T01:08:51.100Z,9.50
2023-04-28T01:11:18.252Z,9.50
2023-04-28T01:13:45.430Z,9.50
2023-04-28T01:16:12.626Z,9.50
2023-04-28T01:18:47.530Z,9.50
2023-04-28T01:21:14.615Z,9.50
2023-04-28T01:23:41.729Z,9.40
2023-04-28T01:28:58.284Z,9.40
2023-04-28T01:31:27.007Z,9.40
2023-04-28T01:33:54.104Z,9.40
2023-04-28T01:36:22.733Z,9.40
2023-04-28T01:38:51.865Z,9.40
2023-04-28T01:41:18.945Z,9.40
2023-04-28T01:43:46.077Z,9.40
2023-04-28T01:46:13.335Z,9.40
2023-04-28T01:48:40.718Z,9.40
2023-04-28T01:51:07.846Z,9.50
2023-04-28T01:53:34.914Z,9.60
2023-04-28T01:56:03.394Z,9.60
2023-04-28T01:58:30.582Z,9.60
2023-04-28T02:00:57.654Z,9.60
2023-04-28T02:03:24.945Z,9.70
2023-04-28T02:05:52.177Z,9.80
2023-04-28T02:08:19.269Z,9.80
2023-04-28T02:10:47.620Z,9.80
2023-04-28T02:13:14.752Z,9.90
2023-04-28T02:15:42.854Z,9.90
2023-04-28T02:18:12.946Z,9.90
2023-04-28T02:20:40.260Z,9.90
2023-04-28T02:23:07.577Z,9.90
2023-04-28T02:25:34.824Z,10.00
2023-04-28T02:28:02.376Z,9.90
2023-04-28T02:30:30.460Z,9.90
2023-04-28T02:32:57.601Z,9.90
2023-04-28T02:35:24.804Z,9.90
2023-04-28T02:37:52.559Z,9.90
2023-04-28T02:40:20.000Z,9.90
2023-04-28T02:42:47.126Z,9.90
2023-04-28T02:45:14.313Z,9.90
2023-04-28T02:47:41.546Z,9.90
2023-04-28T02:50:09.503Z,10.00
2023-04-28T02:52:36.642Z,10.00
2023-04-28T02:55:04.963Z,10.00
2023-04-28T02:57:32.059Z,10.00
2023-04-28T02:59:59.120Z,10.00
2023-04-28T03:02:26.279Z,10.10
2023-04-28T03:04:53.434Z,10.00
2023-04-28T03:07:20.586Z,9.80
2023-04-28T03:09:48.634Z,9.80
2023-04-28T03:12:15.882Z,9.70
2023-04-28T03:14:42.932Z,9.60
2023-04-28T03:17:10.152Z,9.60
2023-04-28T03:19:37.318Z,9.50
2023-04-28T03:22:04.375Z,9.60
2023-04-28T03:24:31.480Z,9.50
2023-04-28T03:26:58.710Z,9.50
2023-04-28T03:29:25.803Z,9.50
2023-04-28T03:31:52.946Z,9.50
2023-04-28T03:34:20.040Z,9.50
2023-04-28T03:36:47.229Z,9.40
2023-04-28T03:39:14.309Z,9.40
2023-04-28T03:41:41.640Z,9.40
2023-04-28T03:44:08.714Z,9.40
2023-04-28T03:46:35.829Z,9.40
2023-04-28T03:49:02.989Z,9.40
2023-04-28T03:51:30.562Z,9.40
2023-04-28T03:53:57.649Z,9.40
2023-04-28T03:56:24.940Z,9.40
2023-04-28T03:58:53.134Z,9.40
2023-04-28T04:01:20.226Z,9.40
2023-04-28T04:03:47.501Z,9.50
2023-04-28T04:06:15.166Z,9.50
2023-04-28T04:08:42.781Z,9.50
2023-04-28T04:11:10.039Z,9.50
2023-04-28T04:13:37.226Z,9.50
2023-04-28T04:16:04.787Z,9.60
2023-04-28T04:18:31.927Z,9.50
2023-04-28T04:20:59.059Z,9.60
2023-04-28T04:23:26.301Z,9.60
2023-04-28T04:25:53.445Z,9.70
2023-04-28T04:28:20.520Z,9.80
2023-04-28T04:30:47.926Z,9.80
2023-04-28T04:33:15.084Z,9.80
2023-04-28T04:35:42.198Z,9.70
2023-04-28T04:38:09.316Z,9.60
2023-04-28T04:40:36.847Z,9.60
2023-04-28T04:43:10.099Z,9.70
2023-04-28T04:45:37.603Z,9.70
2023-04-28T04:48:05.134Z,9.70
2023-04-28T04:50:32.288Z,9.70
2023-04-28T04:52:59.427Z,9.70
2023-04-28T04:55:26.664Z,9.70
2023-04-28T04:57:53.899Z,9.70
2023-04-28T05:00:21.574Z,9.80
2023-04-28T05:02:48.981Z,9.90
2023-04-28T05:05:21.929Z,9.90
2023-04-28T05:07:50.525Z,9.90
2023-04-28T05:10:17.597Z,10.00
2023-04-28T05:12:46.795Z,10.00
2023-04-28T05:15:14.670Z,10.10
2023-04-28T05:17:41.853Z,10.10
2023-04-28T05:20:10.550Z,10.10
2023-04-28T05:22:39.478Z,10.20
2023-04-28T05:25:07.631Z,10.20
2023-04-28T05:27:39.414Z,10.20
2023-04-28T05:30:10.708Z,10.20
2023-04-28T05:32:39.205Z,10.20
2023-04-28T05:35:06.934Z,10.30
2023-04-28T05:37:33.998Z,10.30
2023-04-28T05:40:01.149Z,10.30
2023-04-28T05:42:28.253Z,10.20
2023-04-28T05:44:55.480Z,10.30
2023-04-28T05:47:22.744Z,10.30
2023-04-28T05:49:57.602Z,10.30
2023-04-28T05:52:24.742Z,10.30
2023-04-28T05:54:52.920Z,10.40
2023-04-28T05:57:20.571Z,10.40
2023-04-28T05:59:47.793Z,10.40
2023-04-28T06:02:15.059Z,10.40
2023-04-28T06:04:42.824Z,10.40
2023-04-28T06:07:10.544Z,10.40
2023-04-28T06:09:38.198Z,10.50
2023-04-28T06:12:05.694Z,10.50
2023-04-28T06:14:33.565Z,10.60
2023-04-28T06:17:01.102Z,10.60
2023-04-28T06:19:28.245Z,10.60
2023-04-28T06:21:55.404Z,10.60
2023-04-28T06:24:22.535Z,10.60
2023-04-28T06:26:49.806Z,10.60
2023-04-28T06:29:17.002Z,10.50
2023-04-28T06:31:44.168Z,10.60
2023-04-28T06:34:11.398Z,10.70
2023-04-28T06:36:38.743Z,10.80
2023-04-28T06:39:06.211Z,10.90
2023-04-28T06:41:33.466Z,10.90
2023-04-28T06:44:01.015Z,11.00
2023-04-28T06:46:28.226Z,10.90
2023-04-28T06:48:55.581Z,11.00
2023-04-28T06:51:22.733Z,11.00
2023-04-28T06:53:53.179Z,11.00
2023-04-28T06:56:20.584Z,11.00
2023-04-28T06:58:47.800Z,11.00
2023-04-28T07:01:14.931Z,11.10
2023-04-28T07:03:42.179Z,11.10
2023-04-28T07:06:09.796Z,11.10
2023-04-28T07:08:37.064Z,11.20
2023-04-28T07:11:04.997Z,11.20
2023-04-28T07:13:33.634Z,11.20
2023-04-28T07:16:00.931Z,11.20
2023-04-28T07:18:28.690Z,11.10
2023-04-28T07:20:55.902Z,11.20
2023-04-28T07:23:22.950Z,11.20
2023-04-28T07:25:50.120Z,11.20
2023-04-28T07:28:17.406Z,11.20
2023-04-28T07:30:44.529Z,11.20
2023-04-28T07:33:11.685Z,11.20
2023-04-28T07:35:38.936Z,11.20
2023-04-28T07:38:06.174Z,11.20
2023-04-28T07:40:33.439Z,11.20
2023-04-28T07:43:00.530Z,11.20
2023-04-28T07:45:27.936Z,11.20
2023-04-28T07:47:55.058Z,11.20
2023-04-28T07:50:22.985Z,11.20
2023-04-28T07:52:52.068Z,11.30
2023-04-28T07:55:19.142Z,11.30
2023-04-28T07:57:46.591Z,11.40
2023-04-28T08:00:14.748Z,11.40
2023-04-28T08:02:42.085Z,11.40
2023-04-28T08:05:10.562Z,11.40
2023-04-28T08:07:38.310Z,11.40
2023-04-28T08:10:06.470Z,11.40
2023-04-28T08:12:33.607Z,11.50
2023-04-28T08:15:00.766Z,11.60
2023-04-28T08:17:28.087Z,11.80
2023-04-28T08:19:55.241Z,11.90
2023-04-28T08:22:22.310Z,11.90
2023-04-28T08:24:49.366Z,12.00
2023-04-28T08:27:16.637Z,12.10
2023-04-28T08:29:43.740Z,12.20
2023-04-28T08:32:11.199Z,12.30
2023-04-28T08:34:38.301Z,12.30
2023-04-28T08:37:07.101Z,12.50
2023-04-28T08:39:35.360Z,12.60
2023-04-28T08:42:06.612Z,12.60
2023-04-28T08:44:40.708Z,12.60
2023-04-28T08:47:14.584Z,12.50
2023-04-28T08:49:42.020Z,12.50
2023-04-28T08:52:22.592Z,12.50
2023-04-28T08:54:50.848Z,12.50
2023-04-28T08:57:20.110Z,12.70
2023-04-28T08:59:47.882Z,12.60
2023-04-28T09:02:15.540Z,12.70
2023-04-28T09:04:42.848Z,12.70
2023-04-28T09:07:13.786Z,12.70
2023-04-28T09:09:41.195Z,12.70
2023-04-28T09:12:09.217Z,12.70
2023-04-28T09:14:38.004Z,12.90
2023-04-28T09:17:13.437Z,13.00
2023-04-28T09:19:43.496Z,13.20
2023-04-28T09:22:25.581Z,13.20
2023-04-28T09:24:55.612Z,13.20
2023-04-28T09:27:40.252Z,13.20
2023-04-28T09:30:09.984Z,13.30
2023-04-28T09:32:37.271Z,13.40
2023-04-28T09:35:05.101Z,13.40
2023-04-28T09:37:32.353Z,13.40
2023-04-28T09:40:08.907Z,13.30
2023-04-28T09:42:45.087Z,13.20
2023-04-28T09:45:14.493Z,13.10
2023-04-28T09:47:48.012Z,13.10
2023-04-28T09:50:17.586Z,13.00
2023-04-28T09:52:57.001Z,12.90
2023-04-28T09:55:25.373Z,12.90
2023-04-28T09:57:55.779Z,12.90
2023-04-28T10:00:23.950Z,12.90
2023-04-28T10:02:52.876Z,12.90
2023-04-28T10:05:22.360Z,12.90
2023-04-28T10:07:52.716Z,12.90
2023-04-28T10:10:21.353Z,13.00
2023-04-28T10:12:48.851Z,13.10
2023-04-28T10:15:16.801Z,13.10
2023-04-28T10:17:44.181Z,13.00
2023-04-28T10:20:12.642Z,13.10
2023-04-28T10:23:33.607Z,13.20
2023-04-28T10:26:01.247Z,13.30
2023-04-28T10:28:28.989Z,13.30
2023-04-28T10:31:16.417Z,13.30
2023-04-28T10:33:47.101Z,13.30
2023-04-28T10:36:54.804Z,13.30
2023-04-28T10:39:22.262Z,13.30
2023-04-28T10:41:50.920Z,13.30
2023-04-28T10:44:35.957Z,13.40
2023-04-28T10:47:09.272Z,13.50
2023-04-28T10:50:04.935Z,13.60
2023-04-28T10:52:40.959Z,13.60
2023-04-28T10:55:37.128Z,13.50
2023-04-28T10:58:16.240Z,13.50
2023-04-28T11:00:51.474Z,13.50
2023-04-28T11:03:47.897Z,13.50
2023-04-28T11:06:35.706Z,13.50
2023-04-28T11:09:32.712Z,13.60
2023-04-28T11:12:07.011Z,13.80
2023-04-28T11:14:36.549Z,14.00
2023-04-28T11:17:05.810Z,14.00
2023-04-28T11:19:36.897Z,13.90
2023-04-28T11:22:22.749Z,13.90
2023-04-28T11:24:57.802Z,13.80
2023-04-28T11:27:31.230Z,13.70
2023-04-28T11:29:58.671Z,13.60
2023-04-28T11:32:34.046Z,13.60
2023-04-28T11:35:05.475Z,13.60
2023-04-28T11:37:32.553Z,13.50
2023-04-28T11:40:10.677Z,13.50
2023-04-28T11:42:47.505Z,13.40
2023-04-28T11:45:14.874Z,13.40
2023-04-28T11:47:42.293Z,13.30
2023-04-28T11:50:09.899Z,13.30
2023-04-28T11:52:37.555Z,13.30
2023-04-28T11:55:05.041Z,13.30
2023-04-28T11:57:32.144Z,13.50
2023-04-28T12:00:21.912Z,13.60
2023-04-28T12:02:49.984Z,13.60
2023-04-28T12:05:17.899Z,13.60
2023-04-28T12:07:45.795Z,13.60
2023-04-28T12:10:17.750Z,13.70
2023-04-28T12:12:52.082Z,13.80
2023-04-28T12:16:06.063Z,13.80
2023-04-28T12:18:12.751Z,13.60
2023-04-28T12:20:40.175Z,13.60
2023-04-28T12:23:08.607Z,13.60
2023-04-28T12:25:48.465Z,13.60
2023-04-28T12:28:15.872Z,13.60
2023-04-28T12:30:43.625Z,13.60
2023-04-28T12:33:27.955Z,13.60
2023-04-28T12:35:57.216Z,13.60
2023-04-28T12:38:25.256Z,13.70
2023-04-28T12:40:55.178Z,13.60
2023-04-28T12:43:24.031Z,13.60
2023-04-28T12:45:53.493Z,13.80
2023-04-28T12:48:22.452Z,13.80
2023-04-28T12:50:49.621Z,13.80
2023-04-28T12:53:16.970Z,13.80
2023-04-28T12:55:44.186Z,13.80
2023-04-28T12:58:11.353Z,13.80
2023-04-28T13:00:39.014Z,13.80
2023-04-28T13:03:06.885Z,13.90
2023-04-28T13:05:35.150Z,14.00
2023-04-28T13:08:02.876Z,14.10
2023-04-28T13:10:30.043Z,14.10
2023-04-28T13:12:58.385Z,14.10
2023-04-28T13:15:25.684Z,14.20
2023-04-28T13:17:52.846Z,14.20
2023-04-28T13:20:20.128Z,14.20
2023-04-28T13:22:47.590Z,14.20
2023-04-28T13:25:15.316Z,14.40
2023-04-28T13:27:43.428Z,14.50
2023-04-28T13:30:11.892Z,14.40
2023-04-28T13:32:39.136Z,14.40
2023-04-28T13:35:07.283Z,14.40
2023-04-28T13:37:35.538Z,14.30
2023-04-28T13:40:04.555Z,14.30
2023-04-28T13:42:31.648Z,14.20
2023-04-28T13:44:58.797Z,14.20
2023-04-28T13:47:26.938Z,14.30
2023-04-28T13:49:54.061Z,14.20
2023-04-28T13:52:22.576Z,14.30
2023-04-28T13:54:50.007Z,14.30
2023-04-28T13:57:17.515Z,14.40
2023-04-28T13:59:45.507Z,14.60
2023-04-28T14:02:12.761Z,14.70
2023-04-28T14:04:40.403Z,14.70
2023-04-28T14:07:08.798Z,14.80
2023-04-28T14:09:36.091Z,14.80
2023-04-28T14:12:03.162Z,14.70
2023-04-28T14:14:30.223Z,14.50
2023-04-28T14:16:57.351Z,14.50
2023-04-28T14:19:26.954Z,14.40
2023-04-28T14:21:54.200Z,14.30
2023-04-28T14:24:21.693Z,14.20
2023-04-28T14:26:49.653Z,14.20
2023-04-28T14:29:16.780Z,14.30
2023-04-28T14:31:43.993Z,14.30
2023-04-28T14:34:12.711Z,14.40
2023-04-28T14:36:42.210Z,14.30
2023-04-28T14:39:09.410Z,14.20
2023-04-28T14:41:36.441Z,14.20
2023-04-28T14:44:03.583Z,14.10
2023-04-28T14:46:31.644Z,14.10
2023-04-28T14:48:58.821Z,14.00
2023-04-28T14:51:26.288Z,14.00
2023-04-28T14:53:53.693Z,14.00
2023-04-28T14:56:20.965Z,14.00
2023-04-28T14:58:49.107Z,14.10
2023-04-28T15:01:16.462Z,14.10
2023-04-28T15:03:43.977Z,14.20
2023-04-28T15:06:12.077Z,14.40
2023-04-28T15:08:40.671Z,14.60
2023-04-28T15:11:07.907Z,15.00
2023-04-28T15:13:35.221Z,15.50
2023-04-28T15:16:03.259Z,15.80
2023-04-28T15:18:31.112Z,15.60
2023-04-28T15:20:58.232Z,15.50
2023-04-28T15:23:25.324Z,15.60
2023-04-28T15:25:53.819Z,16.00
2023-04-28T15:28:22.197Z,16.60
2023-04-28T15:30:49.340Z,16.90
2023-04-28T15:33:19.584Z,16.90
2023-04-28T15:35:47.215Z,16.80
2023-04-28T15:38:14.730Z,17.00
2023-04-28T15:40:43.570Z,17.10
2023-04-28T15:43:10.647Z,17.10
2023-04-28T15:45:39.315Z,16.80
2023-04-28T15:48:06.847Z,16.80
2023-04-28T15:50:34.103Z,17.00
2023-04-28T15:53:01.586Z,17.20
2023-04-28T15:55:28.647Z,17.30
2023-04-28T15:57:56.474Z,17.30
2023-04-28T16:00:23.593Z,17.50
2023-04-28T16:02:53.147Z,17.90
2023-04-28T16:05:20.523Z,17.90
2023-04-28T16:07:48.611Z,17.80
2023-04-28T16:10:16.852Z,18.10
2023-04-28T16:12:44.204Z,18.60
2023-04-28T16:15:13.783Z,19.00
2023-04-28T16:17:41.843Z,19.10
2023-04-28T16:20:10.994Z,19.10
2023-04-28T16:22:40.069Z,19.00
2023-04-28T16:25:08.130Z,18.80
2023-04-28T16:27:37.448Z,19.00
2023-04-28T16:30:08.582Z,19.10
2023-04-28T16:32:38.777Z,19.10
2023-04-28T16:35:06.649Z,19.20
2023-04-28T16:37:33.774Z,19.20
2023-04-28T16:40:01.431Z,19.00
2023-04-28T16:42:28.559Z,19.00
2023-04-28T16:44:55.733Z,19.00
2023-04-28T16:47:22.884Z,19.10
2023-04-28T16:49:50.206Z,19.20
2023-04-28T16:52:17.505Z,19.30
2023-04-28T16:54:44.820Z,19.30
2023-04-28T16:57:11.952Z,19.40
2023-04-28T16:59:39.221Z,19.70
2023-04-28T17:02:06.874Z,20.20
2023-04-28T17:04:34.903Z,20.60
2023-04-28T17:07:05.550Z,20.60
2023-04-28T17:09:35.613Z,20.20
2023-04-28T17:12:03.732Z,19.70
2023-04-28T17:14:31.208Z,19.20
2023-04-28T17:16:58.491Z,18.50
2023-04-28T17:19:26.055Z,18.00
2023-04-28T17:21:55.522Z,17.50
2023-04-28T17:24:23.665Z,17.30
2023-04-28T17:26:51.198Z,17.40
2023-04-28T17:29:18.620Z,17.60
2023-04-28T17:31:46.256Z,17.60
2023-04-28T17:34:13.462Z,17.70
2023-04-28T17:36:43.242Z,17.70
2023-04-28T17:39:10.424Z,17.60
2023-04-28T17:41:37.517Z,17.40
2023-04-28T17:44:04.957Z,17.20
2023-04-28T17:46:32.576Z,16.90
2023-04-28T17:49:00.482Z,16.60
2023-04-28T17:51:28.052Z,16.30
2023-04-28T17:53:56.847Z,16.00
2023-04-28T17:56:24.107Z,15.80
2023-04-28T17:58:51.853Z,15.50
2023-04-28T18:01:19.054Z,15.10
2023-04-28T18:03:46.351Z,14.70
2023-04-28T18:06:14.945Z,14.40
2023-04-28T18:08:42.027Z,14.20
2023-04-28T18:11:10.097Z,14.00
2023-04-28T18:13:38.735Z,14.00
2023-04-28T18:16:05.872Z,13.90
2023-04-28T18:18:34.875Z,13.70
2023-04-28T18:21:02.895Z,13.70
2023-04-28T18:23:33.020Z,13.70
2023-04-28T18:26:00.148Z,13.60
2023-04-28T18:28:27.499Z,13.50
2023-04-28T18:30:54.511Z,13.50
2023-04-28T18:33:23.592Z,13.40
2023-04-28T18:36:00.783Z,13.40
2023-04-28T18:38:27.885Z,13.40
2023-04-28T18:40:54.989Z,13.50
2023-04-28T18:43:23.744Z,13.40
2023-04-28T18:45:50.864Z,13.40
2023-04-28T18:48:18.839Z,13.30
2023-04-28T18:50:47.764Z,13.30
2023-04-28T18:53:14.866Z,13.30
2023-04-28T18:55:41.897Z,13.30
2023-04-28T18:58:09.024Z,13.20
2023-04-28T19:00:37.246Z,13.10
2023-04-28T19:03:04.769Z,12.90
2023-04-28T19:05:32.145Z,12.80
2023-04-28T19:07:59.440Z,12.80
2023-04-28T19:10:26.726Z,12.60
2023-04-28T19:12:54.138Z,12.50
2023-04-28T19:15:21.207Z,12.30
2023-04-28T19:17:48.337Z,12.20
2023-04-28T19:20:15.560Z,12.00
2023-04-28T19:22:43.922Z,11.90
2023-04-28T19:25:12.250Z,11.90
2023-04-28T19:27:41.476Z,11.90
2023-04-28T19:30:11.687Z,11.90
2023-04-28T19:32:40.889Z,11.80
2023-04-28T19:35:09.780Z,11.80
2023-04-28T19:37:36.932Z,11.70
2023-04-28T19:40:07.525Z,11.80
2023-04-28T19:42:35.301Z,11.70
2023-04-28T19:45:02.884Z,11.70
2023-04-28T19:47:34.294Z,11.60
2023-04-28T19:50:02.157Z,11.60
2023-04-28T19:52:29.251Z,11.50
2023-04-28T19:54:57.345Z,11.50
2023-04-28T19:57:24.412Z,11.40
2023-04-28T19:59:52.906Z,11.40
2023-04-28T20:02:21.236Z,11.60
2023-04-28T20:04:49.626Z,11.80
2023-04-28T20:07:16.824Z,12.00
2023-04-28T20:09:45.049Z,12.10
2023-04-28T20:12:12.137Z,12.20
2023-04-28T20:14:39.246Z,12.20
2023-04-28T20:17:09.186Z,12.20
2023-04-28T20:19:36.744Z,12.20
2023-04-28T20:22:08.199Z,12.10
2023-04-28T20:24:36.180Z,12.10
2023-04-28T20:27:04.445Z,12.00
2023-04-28T20:29:34.827Z,11.80
2023-04-28T20:32:02.742Z,11.70
2023-04-28T20:34:31.109Z,11.60
2023-04-28T20:36:59.803Z,11.40
2023-04-28T20:39:26.919Z,11.30
2023-04-28T20:41:54.071Z,11.30
2023-04-28T20:44:21.162Z,11.30
2023-04-28T20:46:48.354Z,11.20
2023-04-28T20:49:15.548Z,11.10
2023-04-28T20:51:46.738Z,11.10
2023-04-28T20:54:14.572Z,11.10
2023-04-28T20:56:42.973Z,11.20
2023-04-28T20:59:10.436Z,11.20
2023-04-28T21:01:37.940Z,11.30
2023-04-28T21:04:05.282Z,11.40
2023-04-28T21:06:32.605Z,11.40
2023-04-28T21:08:59.790Z,11.50
2023-04-28T21:11:27.115Z,11.50
2023-04-28T21:13:54.220Z,11.60
2023-04-28T21:16:21.806Z,11.70
2023-04-28T21:18:50.811Z,11.70
2023-04-28T21:21:18.699Z,11.80
2023-04-28T21:23:45.922Z,11.80
2023-04-28T21:26:13.480Z,11.80
2023-04-28T21:28:41.743Z,11.60
2023-04-28T21:31:10.011Z,11.70
2023-04-28T21:33:37.855Z,11.80
2023-04-28T21:36:08.101Z,11.70
2023-04-28T21:38:39.169Z,11.60
2023-04-28T21:41:07.703Z,11.50
2023-04-28T21:43:35.249Z,11.40
2023-04-28T21:46:02.426Z,11.30
2023-04-28T21:48:29.826Z,11.20
2023-04-28T21:50:57.170Z,11.10
2023-04-28T21:53:24.428Z,11.10
2023-04-28T21:55:51.759Z,11.10
2023-04-28T21:58:18.830Z,11.10
2023-04-28T22:00:47.226Z,11.10
2023-04-28T22:03:15.460Z,11.10
2023-04-28T22:05:44.423Z,11.10
2023-04-28T22:08:12.211Z,11.10
2023-04-28T22:10:39.701Z,11.00
2023-04-28T22:13:07.364Z,10.90
2023-04-28T22:15:34.718Z,10.90
2023-04-28T22:18:02.111Z,10.80
2023-04-28T22:20:29.373Z,10.80
2023-04-28T22:22:57.792Z,10.80
2023-04-28T22:25:33.923Z,10.70
2023-04-28T22:28:01.034Z,10.70
2023-04-28T22:30:30.956Z,10.70
2023-04-28T22:32:58.087Z,10.80
2023-04-28T22:35:25.206Z,10.90
2023-04-28T22:37:52.455Z,10.80
2023-04-28T22:40:19.700Z,10.80
2023-04-28T22:42:46.836Z,10.80
2023-04-28T22:45:14.135Z,10.80
2023-04-28T22:47:41.904Z,10.90
2023-04-28T22:50:10.635Z,10.90
2023-04-28T22:52:38.145Z,10.90
2023-04-28T22:55:06.527Z,11.00
2023-04-28T22:57:33.803Z,11.00
2023-04-28T23:00:01.064Z,10.90
2023-04-28T23:02:28.824Z,11.00
2023-04-28T23:04:56.888Z,10.90
2023-04-28T23:07:24.319Z,10.90
2023-04-28T23:09:52.741Z,10.90
2023-04-28T23:12:20.120Z,10.80
2023-04-28T23:14:47.322Z,10.80
2023-04-28T23:17:14.437Z,10.70
2023-04-28T23:19:41.639Z,10.60
2023-04-28T23:22:09.296Z,10.60
2023-04-28T23:24:38.014Z,10.70
2023-04-28T23:27:05.346Z,10.50
2023-04-28T23:29:33.291Z,10.40
2023-04-28T23:32:00.573Z,10.30
2023-04-28T23:34:27.874Z,10.30
2023-04-28T23:36:55.281Z,10.30
2023-04-28T23:39:22.440Z,10.30
2023-04-28T23:41:49.686Z,10.30
2023-04-28T23:44:17.274Z,10.30
2023-04-28T23:46:44.391Z,10.30
2023-04-28T23:49:11.944Z,10.40
2023-04-28T23:51:41.026Z,10.40
2023-04-28T23:54:09.905Z,10.50
2023-04-28T23:56:37.012Z,10.50
2023-04-28T23:59:05.002Z,10.60
